CDT,Max TemperatureF,Mean TemperatureF,Min TemperatureF,Max Dew PointF,MeanDew PointF,Min DewpointF,Max Humidity, Mean Humidity, Min Humidity, Max Sea Level PressureIn, Mean Sea Level PressureIn, Min Sea Level PressureIn, Max VisibilityMiles, Mean VisibilityMiles, Min VisibilityMiles, Max Wind SpeedMPH, Mean Wind SpeedMPH, Max Gust SpeedMPH,PrecipitationIn, CloudCover, Events, WindDirDegrees
2013-9-1,92,84,76,75,70,66,79,67,55,29.88,29.80,29.75,10,10,10,17,7,23,0.00,4,,181
2013-9-2,88,78,68,73,64,60,94,67,40,30.00,29.94,29.88,10,10,7,15,8,23,0.00,0,,359
2013-9-3,90,76,61,65,61,56,100,66,32,30.05,30.00,29.95,10,10,10,13,5,17,0.00,1,,5
2013-9-4,94,78,61,67,63,60,93,66,38,30.10,30.05,30.01,10,10,10,9,5,13,0.00,1,,53
2013-9-5,95,81,67,64,63,60,84,59,33,30.14,30.08,30.03,10,10,10,12,5,14,0.00,2,,124
2013-9-6,95,82,69,65,63,61,73,55,36,30.09,30.03,29.95,10,10,10,13,7,17,0.00,1,,147
2013-9-7,99,86,73,66,63,61,64,47,30,30.00,29.94,29.87,10,10,10,14,7,17,0.00,0,,167
2013-9-8,99,87,75,66,65,63,64,48,31,29.93,29.89,29.83,10,10,10,17,8,23,0.00,1,,184
2013-9-9,96,85,74,66,63,60,68,50,31,29.95,29.90,29.87,10,10,10,23,9,28,0.00,1,,181
2013-9-10,95,85,74,66,63,59,60,48,36,30.07,30.01,29.94,10,10,10,20,9,26,0.00,4,,174
2013-9-11,96,82,68,67,63,60,84,58,31,30.12,30.06,29.99,10,10,10,14,4,18,0.00,3,,164
2013-9-12,96,83,70,69,67,64,84,63,41,30.08,30.02,29.96,10,10,8,22,7,26,0.00,4,,17
2013-9-13,87,78,68,69,58,49,93,63,32,30.06,30.01,29.94,10,10,10,16,8,20,0.00,5,,27
2013-9-14,86,74,61,59,55,52,73,57,40,30.04,29.97,29.91,10,10,10,15,8,20,0.00,4,,125
2013-9-15,89,79,68,67,58,51,59,50,40,30.01,29.97,29.94,10,10,10,20,9,24,0.00,5,,168
2013-9-16,86,78,70,71,69,66,100,80,59,30.18,30.08,29.99,10,10,6,20,8,24,0.05,7,Rain-Thunderstorm,42
2013-9-17,82,75,68,70,69,67,100,82,63,30.11,30.04,29.94,10,8,2,18,6,23,0.05,7,Rain,99
2013-9-18,94,82,70,72,69,67,90,68,46,29.96,29.91,29.83,10,10,10,25,11,32,T,5,Rain,171
2013-9-19,93,82,70,75,71,67,97,73,49,29.96,29.89,29.83,10,9,0,37,9,51,0.89,5,Rain-Thunderstorm,201
2013-9-20,72,65,57,69,64,56,100,79,57,30.01,29.96,29.92,10,9,2,16,7,22,0.25,7,Rain,356
2013-9-21,80,66,52,58,54,50,100,70,39,30.03,29.96,29.90,10,10,10,13,4,17,0.00,0,,11
2013-9-22,80,66,51,58,51,48,100,67,33,29.96,29.90,29.82,10,10,10,15,5,18,0.00,0,Fog,137
2013-9-23,81,67,53,61,54,51,93,65,36,29.88,29.82,29.75,10,10,10,21,9,28,0.01,1,Rain,147
2013-9-24,83,73,62,60,57,53,87,65,43,29.88,29.85,29.83,10,10,10,21,10,26,0.00,1,,279
2013-9-25,85,71,57,61,59,56,100,69,37,29.90,29.84,29.76,10,10,10,12,4,13,0.00,0,,104
2013-9-26,92,78,63,62,60,59,87,62,36,29.87,29.82,29.78,10,10,10,20,11,27,0.00,0,,145
2013-9-27,90,79,67,64,61,57,87,62,36,29.94,29.87,29.81,10,10,10,26,13,34,0.00,1,,154
2013-9-28,79,67,55,70,64,56,100,80,60,30.09,29.94,29.81,10,7,0,23,9,29,1.25,7,Fog-Rain-Thunderstorm,18
2013-9-29,76,64,51,60,53,48,100,71,41,30.10,30.04,29.93,10,5,0,13,4,16,0.00,1,Fog,352
2013-9-30,82,66,50,64,55,50,100,69,37,29.93,29.86,29.80,10,10,10,15,5,19,0.00,1,,159